sensor_id;sensor_type;location;lat;lon;timestamp;temperature;humidity
32865;DHT22;19219;44.500;11.188;2022-08-30T00:00:22;23.00;99.90
32865;DHT22;19219;44.500;11.188;2022-08-30T00:03:07;23.00;99.90
32865;DHT22;19219;44.500;11.188;2022-08-30T00:05:34;22.90;99.90
32865;DHT22;19219;44.500;11.188;2022-08-30T00:08:00;22.90;99.90
32865;DHT22;19219;44.500;11.188;2022-08-30T00:10:27;22.80;99.90
32865;DHT22;19219;44.500;11.188;2022-08-30T00:12:54;22.80;99.90
32865;DHT22;19219;44.500;11.188;2022-08-30T00:15:21;22.80;99.90
32865;DHT22;19219;44.500;11.188;2022-08-30T00:17:47;22.80;99.90
32865;DHT22;19219;44.500;11.188;2022-08-30T00:20:16;22.70;99.90
32865;DHT22;19219;44.500;11.188;2022-08-30T00:22:43;22.70;99.90
32865;DHT22;19219;44.500;11.188;2022-08-30T00:25:10;22.70;99.90
32865;DHT22;19219;44.500;11.188;2022-08-30T00:27:37;22.70;99.90
32865;DHT22;19219;44.500;11.188;2022-08-30T00:30:04;22.70;99.90
32865;DHT22;19219;44.500;11.188;2022-08-30T00:32:31;22.70;99.90
32865;DHT22;19219;44.500;11.188;2022-08-30T00:34:57;22.70;99.90
32865;DHT22;19219;44.500;11.188;2022-08-30T00:37:23;22.70;99.90
32865;DHT22;19219;44.500;11.188;2022-08-30T00:39:49;22.70;99.90
32865;DHT22;19219;44.500;11.188;2022-08-30T00:42:16;22.60;99.90
32865;DHT22;19219;44.500;11.188;2022-08-30T00:44:43;22.40;99.90
32865;DHT22;19219;44.500;11.188;2022-08-30T00:47:10;22.30;99.90
32865;DHT22;19219;44.500;11.188;2022-08-30T00:49:37;22.30;99.90
32865;DHT22;19219;44.500;11.188;2022-08-30T00:52:05;22.30;99.90
32865;DHT22;19219;44.500;11.188;2022-08-30T00:54:32;22.40;99.90
32865;DHT22;19219;44.500;11.188;2022-08-30T00:56:58;22.40;99.90
32865;DHT22;19219;44.500;11.188;2022-08-30T00:59:25;22.40;99.90
32865;DHT22;19219;44.500;11.188;2022-08-30T01:01:51;22.30;99.90
32865;DHT22;19219;44.500;11.188;2022-08-30T01:04:19;22.30;99.90
32865;DHT22;19219;44.500;11.188;2022-08-30T01:06:46;22.20;99.90
32865;DHT22;19219;44.500;11.188;2022-08-30T01:09:13;22.20;99.90
32865;DHT22;19219;44.500;11.188;2022-08-30T01:11:40;22.10;99.90
32865;DHT22;19219;44.500;11.188;2022-08-30T01:14:08;22.10;99.90
32865;DHT22;19219;44.500;11.188;2022-08-30T01:16:36;22.10;99.90
32865;DHT22;19219;44.500;11.188;2022-08-30T01:19:04;22.10;99.90
32865;DHT22;19219;44.500;11.188;2022-08-30T01:21:47;22.20;99.90
32865;DHT22;19219;44.500;11.188;2022-08-30T01:24:13;22.20;99.90
32865;DHT22;19219;44.500;11.188;2022-08-30T01:26:39;22.30;99.90
32865;DHT22;19219;44.500;11.188;2022-08-30T01:29:09;22.30;99.90
32865;DHT22;19219;44.500;11.188;2022-08-30T01:31:35;22.30;99.90
32865;DHT22;19219;44.500;11.188;2022-08-30T01:34:05;22.40;99.90
32865;DHT22;19219;44.500;11.188;2022-08-30T01:36:35;22.40;99.90
32865;DHT22;19219;44.500;11.188;2022-08-30T01:39:02;22.50;99.90
32865;DHT22;19219;44.500;11.188;2022-08-30T01:41:30;22.50;99.90
32865;DHT22;19219;44.500;11.188;2022-08-30T01:43:59;22.40;99.90
32865;DHT22;19219;44.500;11.188;2022-08-30T01:46:29;22.20;99.90
32865;DHT22;19219;44.500;11.188;2022-08-30T01:48:55;22.20;99.90
32865;DHT22;19219;44.500;11.188;2022-08-30T01:51:24;22.10;99.90
32865;DHT22;19219;44.500;11.188;2022-08-30T01:53:50;22.00;99.90
32865;DHT22;19219;44.500;11.188;2022-08-30T01:56:17;22.00;99.90
32865;DHT22;19219;44.500;11.188;2022-08-30T01:58:44;22.00;99.90
32865;DHT22;19219;44.500;11.188;2022-08-30T02:01:11;22.00;99.90
32865;DHT22;19219;44.500;11.188;2022-08-30T02:03:40;22.00;99.90
32865;DHT22;19219;44.500;11.188;2022-08-30T02:06:09;21.90;99.90
32865;DHT22;19219;44.500;11.188;2022-08-30T02:08:36;21.90;99.90
32865;DHT22;19219;44.500;11.188;2022-08-30T02:11:02;22.10;99.90
32865;DHT22;19219;44.500;11.188;2022-08-30T02:13:28;22.10;99.90
32865;DHT22;19219;44.500;11.188;2022-08-30T02:15:55;22.10;99.90
32865;DHT22;19219;44.500;11.188;2022-08-30T02:18:23;22.10;99.90
32865;DHT22;19219;44.500;11.188;2022-08-30T02:20:49;21.90;99.90
32865;DHT22;19219;44.500;11.188;2022-08-30T02:23:15;21.80;99.90
32865;DHT22;19219;44.500;11.188;2022-08-30T02:25:41;21.80;99.90
32865;DHT22;19219;44.500;11.188;2022-08-30T02:28:07;21.80;99.90
32865;DHT22;19219;44.500;11.188;2022-08-30T02:30:33;21.80;99.90
32865;DHT22;19219;44.500;11.188;2022-08-30T02:32:59;21.80;99.90
32865;DHT22;19219;44.500;11.188;2022-08-30T02:35:25;21.80;99.90
32865;DHT22;19219;44.500;11.188;2022-08-30T02:37:51;21.80;99.90
32865;DHT22;19219;44.500;11.188;2022-08-30T02:40:17;21.80;99.90
32865;DHT22;19219;44.500;11.188;2022-08-30T02:42:43;21.70;99.90
32865;DHT22;19219;44.500;11.188;2022-08-30T02:45:09;21.70;99.90
32865;DHT22;19219;44.500;11.188;2022-08-30T02:47:35;21.70;99.90
32865;DHT22;19219;44.500;11.188;2022-08-30T02:50:03;21.60;99.90
32865;DHT22;19219;44.500;11.188;2022-08-30T02:52:29;21.60;99.90
32865;DHT22;19219;44.500;11.188;2022-08-30T02:54:55;21.60;99.90
32865;DHT22;19219;44.500;11.188;2022-08-30T02:57:21;21.70;99.90
32865;DHT22;19219;44.500;11.188;2022-08-30T02:59:47;21.70;99.90
32865;DHT22;19219;44.500;11.188;2022-08-30T03:02:13;21.70;99.90
32865;DHT22;19219;44.500;11.188;2022-08-30T03:04:39;21.70;99.90
32865;DHT22;19219;44.500;11.188;2022-08-30T03:07:06;21.50;99.90
32865;DHT22;19219;44.500;11.188;2022-08-30T03:09:33;21.50;99.90
32865;DHT22;19219;44.500;11.188;2022-08-30T03:11:59;21.50;99.90
32865;DHT22;19219;44.500;11.188;2022-08-30T03:14:25;21.60;99.90
32865;DHT22;19219;44.500;11.188;2022-08-30T03:16:50;21.70;99.90
32865;DHT22;19219;44.500;11.188;2022-08-30T03:19:17;21.70;99.90
32865;DHT22;19219;44.500;11.188;2022-08-30T03:21:43;21.80;99.90
32865;DHT22;19219;44.500;11.188;2022-08-30T03:24:12;21.70;99.90
32865;DHT22;19219;44.500;11.188;2022-08-30T03:26:38;21.70;99.90
32865;DHT22;19219;44.500;11.188;2022-08-30T03:29:04;21.70;99.90
32865;DHT22;19219;44.500;11.188;2022-08-30T03:31:29;21.60;99.90
32865;DHT22;19219;44.500;11.188;2022-08-30T03:33:55;21.40;99.90
32865;DHT22;19219;44.500;11.188;2022-08-30T03:36:21;21.30;99.90
32865;DHT22;19219;44.500;11.188;2022-08-30T03:38:47;21.30;99.90
32865;DHT22;19219;44.500;11.188;2022-08-30T03:41:12;21.30;99.90
32865;DHT22;19219;44.500;11.188;2022-08-30T03:43:38;21.30;99.90
32865;DHT22;19219;44.500;11.188;2022-08-30T03:46:04;21.20;99.90
32865;DHT22;19219;44.500;11.188;2022-08-30T03:48:30;21.20;99.90
32865;DHT22;19219;44.500;11.188;2022-08-30T03:50:55;21.20;99.90
32865;DHT22;19219;44.500;11.188;2022-08-30T03:53:22;21.20;99.90
32865;DHT22;19219;44.500;11.188;2022-08-30T03:55:47;21.30;99.90
32865;DHT22;19219;44.500;11.188;2022-08-30T03:58:13;21.30;99.90
32865;DHT22;19219;44.500;11.188;2022-08-30T04:00:39;21.20;99.90
32865;DHT22;19219;44.500;11.188;2022-08-30T04:03:04;21.10;99.90
32865;DHT22;19219;44.500;11.188;2022-08-30T04:05:30;21.00;99.90
32865;DHT22;19219;44.500;11.188;2022-08-30T04:07:56;21.00;99.90
32865;DHT22;19219;44.500;11.188;2022-08-30T04:10:22;20.90;99.90
32865;DHT22;19219;44.500;11.188;2022-08-30T04:12:49;20.90;99.90
32865;DHT22;19219;44.500;11.188;2022-08-30T04:15:16;20.90;99.90
32865;DHT22;19219;44.500;11.188;2022-08-30T04:17:42;20.80;99.90
32865;DHT22;19219;44.500;11.188;2022-08-30T04:20:08;20.90;99.90
32865;DHT22;19219;44.500;11.188;2022-08-30T04:22:34;20.90;99.90
32865;DHT22;19219;44.500;11.188;2022-08-30T04:25:02;21.00;99.90
32865;DHT22;19219;44.500;11.188;2022-08-30T04:27:28;21.00;99.90
32865;DHT22;19219;44.500;11.188;2022-08-30T04:29:53;21.00;99.90
32865;DHT22;19219;44.500;11.188;2022-08-30T04:32:21;21.00;99.90
32865;DHT22;19219;44.500;11.188;2022-08-30T04:34:47;21.10;99.90
32865;DHT22;19219;44.500;11.188;2022-08-30T04:37:12;21.10;99.90
32865;DHT22;19219;44.500;11.188;2022-08-30T04:39:39;21.20;99.90
32865;DHT22;19219;44.500;11.188;2022-08-30T04:42:05;21.20;99.90
32865;DHT22;19219;44.500;11.188;2022-08-30T04:44:31;21.20;99.90
32865;DHT22;19219;44.500;11.188;2022-08-30T04:46:57;21.20;99.90
32865;DHT22;19219;44.500;11.188;2022-08-30T04:49:23;21.10;99.90
32865;DHT22;19219;44.500;11.188;2022-08-30T04:51:49;21.00;99.90
32865;DHT22;19219;44.500;11.188;2022-08-30T04:54:16;21.00;99.90
32865;DHT22;19219;44.500;11.188;2022-08-30T04:56:42;21.00;99.90
32865;DHT22;19219;44.500;11.188;2022-08-30T04:59:08;20.90;99.90
32865;DHT22;19219;44.500;11.188;2022-08-30T05:01:34;20.80;99.90
32865;DHT22;19219;44.500;11.188;2022-08-30T05:04:00;20.80;99.90
32865;DHT22;19219;44.500;11.188;2022-08-30T05:06:27;20.80;99.90
32865;DHT22;19219;44.500;11.188;2022-08-30T05:08:55;20.80;99.90
32865;DHT22;19219;44.500;11.188;2022-08-30T05:11:22;20.90;99.90
32865;DHT22;19219;44.500;11.188;2022-08-30T05:13:48;20.90;99.90
32865;DHT22;19219;44.500;11.188;2022-08-30T05:16:14;21.00;99.90
32865;DHT22;19219;44.500;11.188;2022-08-30T05:18:44;21.00;99.90
32865;DHT22;19219;44.500;11.188;2022-08-30T05:21:13;20.90;99.90
32865;DHT22;19219;44.500;11.188;2022-08-30T05:23:40;21.00;99.90
32865;DHT22;19219;44.500;11.188;2022-08-30T05:26:27;20.90;99.90
32865;DHT22;19219;44.500;11.188;2022-08-30T05:28:54;20.90;99.90
32865;DHT22;19219;44.500;11.188;2022-08-30T05:31:23;20.90;99.90
32865;DHT22;19219;44.500;11.188;2022-08-30T05:33:51;20.90;99.90
32865;DHT22;19219;44.500;11.188;2022-08-30T05:36:18;20.90;99.90
32865;DHT22;19219;44.500;11.188;2022-08-30T05:38:44;20.90;99.90
32865;DHT22;19219;44.500;11.188;2022-08-30T05:41:11;20.90;99.90
32865;DHT22;19219;44.500;11.188;2022-08-30T05:43:37;21.00;99.90
32865;DHT22;19219;44.500;11.188;2022-08-30T05:46:09;21.00;99.90
32865;DHT22;19219;44.500;11.188;2022-08-30T05:48:36;21.20;99.90
32865;DHT22;19219;44.500;11.188;2022-08-30T05:53:27;21.40;99.90
32865;DHT22;19219;44.500;11.188;2022-08-30T05:55:53;21.60;99.90
32865;DHT22;19219;44.500;11.188;2022-08-30T05:58:18;21.70;99.90
32865;DHT22;19219;44.500;11.188;2022-08-30T06:00:44;21.90;99.90
32865;DHT22;19219;44.500;11.188;2022-08-30T06:03:10;22.10;99.90
32865;DHT22;19219;44.500;11.188;2022-08-30T06:05:37;22.40;99.90
32865;DHT22;19219;44.500;11.188;2022-08-30T06:08:03;22.60;99.90
32865;DHT22;19219;44.500;11.188;2022-08-30T06:10:29;23.00;99.90
32865;DHT22;19219;44.500;11.188;2022-08-30T06:12:55;23.40;99.90
32865;DHT22;19219;44.500;11.188;2022-08-30T06:15:21;24.00;99.90
32865;DHT22;19219;44.500;11.188;2022-08-30T06:17:47;24.40;99.90
32865;DHT22;19219;44.500;11.188;2022-08-30T06:20:13;24.80;99.90
32865;DHT22;19219;44.500;11.188;2022-08-30T06:22:39;25.20;99.90
32865;DHT22;19219;44.500;11.188;2022-08-30T06:25:05;25.60;99.90
32865;DHT22;19219;44.500;11.188;2022-08-30T06:27:31;25.90;99.90
32865;DHT22;19219;44.500;11.188;2022-08-30T06:29:57;26.20;99.90
32865;DHT22;19219;44.500;11.188;2022-08-30T06:32:23;26.30;99.90
32865;DHT22;19219;44.500;11.188;2022-08-30T06:34:48;26.40;99.90
32865;DHT22;19219;44.500;11.188;2022-08-30T06:37:14;26.70;99.90
32865;DHT22;19219;44.500;11.188;2022-08-30T06:39:40;27.00;99.90
32865;DHT22;19219;44.500;11.188;2022-08-30T06:42:06;27.30;99.90
32865;DHT22;19219;44.500;11.188;2022-08-30T06:44:32;27.50;99.90
32865;DHT22;19219;44.500;11.188;2022-08-30T06:46:57;27.70;99.90
32865;DHT22;19219;44.500;11.188;2022-08-30T06:49:23;28.00;99.90
32865;DHT22;19219;44.500;11.188;2022-08-30T06:51:49;28.10;99.90
32865;DHT22;19219;44.500;11.188;2022-08-30T06:54:15;28.50;99.90
32865;DHT22;19219;44.500;11.188;2022-08-30T06:56:41;28.80;99.90
32865;DHT22;19219;44.500;11.188;2022-08-30T06:59:07;28.90;99.90
32865;DHT22;19219;44.500;11.188;2022-08-30T07:01:32;29.20;99.90
32865;DHT22;19219;44.500;11.188;2022-08-30T07:03:58;29.10;99.90
32865;DHT22;19219;44.500;11.188;2022-08-30T07:06:26;29.00;99.90
32865;DHT22;19219;44.500;11.188;2022-08-30T07:08:52;29.00;99.90
32865;DHT22;19219;44.500;11.188;2022-08-30T07:11:29;29.10;99.90
32865;DHT22;19219;44.500;11.188;2022-08-30T07:13:55;29.10;99.90
32865;DHT22;19219;44.500;11.188;2022-08-30T07:16:21;29.30;99.90
32865;DHT22;19219;44.500;11.188;2022-08-30T07:18:46;29.50;99.90
32865;DHT22;19219;44.500;11.188;2022-08-30T07:21:17;29.60;99.90
32865;DHT22;19219;44.500;11.188;2022-08-30T07:23:44;29.60;99.90
32865;DHT22;19219;44.500;11.188;2022-08-30T07:26:13;29.60;99.90
32865;DHT22;19219;44.500;11.188;2022-08-30T07:28:43;30.10;99.90
32865;DHT22;19219;44.500;11.188;2022-08-30T07:31:10;30.30;99.90
32865;DHT22;19219;44.500;11.188;2022-08-30T07:33:36;30.60;99.90
32865;DHT22;19219;44.500;11.188;2022-08-30T07:36:03;30.60;99.90
32865;DHT22;19219;44.500;11.188;2022-08-30T07:38:29;30.60;99.90
32865;DHT22;19219;44.500;11.188;2022-08-30T07:40:56;30.90;99.90
32865;DHT22;19219;44.500;11.188;2022-08-30T07:43:28;30.80;99.90
32865;DHT22;19219;44.500;11.188;2022-08-30T07:45:54;31.00;99.90
32865;DHT22;19219;44.500;11.188;2022-08-30T07:48:24;31.30;99.90
32865;DHT22;19219;44.500;11.188;2022-08-30T07:50:50;31.60;99.90
32865;DHT22;19219;44.500;11.188;2022-08-30T07:53:15;31.40;99.90
32865;DHT22;19219;44.500;11.188;2022-08-30T07:55:41;30.90;99.90
32865;DHT22;19219;44.500;11.188;2022-08-30T07:58:06;30.90;99.90
32865;DHT22;19219;44.500;11.188;2022-08-30T08:00:32;31.30;99.90
32865;DHT22;19219;44.500;11.188;2022-08-30T08:03:04;31.50;99.90
32865;DHT22;19219;44.500;11.188;2022-08-30T08:05:31;31.70;99.90
32865;DHT22;19219;44.500;11.188;2022-08-30T08:07:56;32.00;99.90
32865;DHT22;19219;44.500;11.188;2022-08-30T08:10:22;32.20;99.90
32865;DHT22;19219;44.500;11.188;2022-08-30T08:12:48;32.00;99.90
32865;DHT22;19219;44.500;11.188;2022-08-30T08:15:14;31.90;99.90
32865;DHT22;19219;44.500;11.188;2022-08-30T08:17:39;32.00;99.90
32865;DHT22;19219;44.500;11.188;2022-08-30T08:20:05;32.20;99.90
32865;DHT22;19219;44.500;11.188;2022-08-30T08:22:31;32.60;99.90
32865;DHT22;19219;44.500;11.188;2022-08-30T08:24:57;32.70;99.50
32865;DHT22;19219;44.500;11.188;2022-08-30T08:27:22;32.90;99.40
32865;DHT22;19219;44.500;11.188;2022-08-30T08:29:49;33.10;99.10
32865;DHT22;19219;44.500;11.188;2022-08-30T08:32:14;33.00;98.90
32865;DHT22;19219;44.500;11.188;2022-08-30T08:34:40;33.00;99.10
32865;DHT22;19219;44.500;11.188;2022-08-30T08:37:06;32.70;99.30
32865;DHT22;19219;44.500;11.188;2022-08-30T08:39:31;32.70;99.30
32865;DHT22;19219;44.500;11.188;2022-08-30T08:47:26;32.70;99.90
32865;DHT22;19219;44.500;11.188;2022-08-30T08:49:57;32.70;99.90
32865;DHT22;19219;44.500;11.188;2022-08-30T08:52:35;32.10;99.90
32865;DHT22;19219;44.500;11.188;2022-08-30T08:55:22;32.10;99.90
32865;DHT22;19219;44.500;11.188;2022-08-30T08:57:48;32.50;99.90
32865;DHT22;19219;44.500;11.188;2022-08-30T09:00:16;32.90;99.90
32865;DHT22;19219;44.500;11.188;2022-08-30T09:02:47;33.20;99.40
32865;DHT22;19219;44.500;11.188;2022-08-30T09:05:19;33.30;99.00
32865;DHT22;19219;44.500;11.188;2022-08-30T09:07:54;33.50;99.10
32865;DHT22;19219;44.500;11.188;2022-08-30T09:10:23;33.30;98.60
32865;DHT22;19219;44.500;11.188;2022-08-30T09:12:49;33.30;98.60
32865;DHT22;19219;44.500;11.188;2022-08-30T09:15:22;33.40;98.40
32865;DHT22;19219;44.500;11.188;2022-08-30T09:17:54;33.10;98.50
32865;DHT22;19219;44.500;11.188;2022-08-30T09:20:41;33.00;98.60
32865;DHT22;19219;44.500;11.188;2022-08-30T09:23:27;33.10;98.70
32865;DHT22;19219;44.500;11.188;2022-08-30T09:26:03;33.10;98.60
32865;DHT22;19219;44.500;11.188;2022-08-30T09:28:44;33.00;99.10
32865;DHT22;19219;44.500;11.188;2022-08-30T09:31:29;32.70;99.40
32865;DHT22;19219;44.500;11.188;2022-08-30T09:34:08;32.80;99.00
32865;DHT22;19219;44.500;11.188;2022-08-30T09:36:43;32.70;99.20
32865;DHT22;19219;44.500;11.188;2022-08-30T09:39:25;32.70;99.10
32865;DHT22;19219;44.500;11.188;2022-08-30T09:41:52;32.90;98.90
32865;DHT22;19219;44.500;11.188;2022-08-30T09:44:23;32.70;98.70
32865;DHT22;19219;44.500;11.188;2022-08-30T09:46:57;32.70;99.40
32865;DHT22;19219;44.500;11.188;2022-08-30T09:49:32;33.00;99.10
32865;DHT22;19219;44.500;11.188;2022-08-30T09:52:14;33.00;99.10
32865;DHT22;19219;44.500;11.188;2022-08-30T09:57:56;33.20;98.60
32865;DHT22;19219;44.500;11.188;2022-08-30T10:00:26;33.50;98.60
32865;DHT22;19219;44.500;11.188;2022-08-30T10:08:19;33.40;99.10
32865;DHT22;19219;44.500;11.188;2022-08-30T10:16:35;33.00;99.80
32865;DHT22;19219;44.500;11.188;2022-08-30T10:19:26;33.00;99.10
32865;DHT22;19219;44.500;11.188;2022-08-30T10:21:58;33.20;99.90
32865;DHT22;19219;44.500;11.188;2022-08-30T10:24:30;33.40;99.90
32865;DHT22;19219;44.500;11.188;2022-08-30T10:27:07;33.50;99.90
32865;DHT22;19219;44.500;11.188;2022-08-30T10:30:04;33.50;99.90
32865;DHT22;19219;44.500;11.188;2022-08-30T10:32:52;33.70;99.90
32865;DHT22;19219;44.500;11.188;2022-08-30T10:35:23;33.60;99.90
32865;DHT22;19219;44.500;11.188;2022-08-30T10:41:27;33.80;99.20
32865;DHT22;19219;44.500;11.188;2022-08-30T10:49:39;33.70;99.40
32865;DHT22;19219;44.500;11.188;2022-08-30T10:55:01;33.40;99.10
32865;DHT22;19219;44.500;11.188;2022-08-30T10:57:29;33.10;98.90
32865;DHT22;19219;44.500;11.188;2022-08-30T11:00:04;33.20;99.10
32865;DHT22;19219;44.500;11.188;2022-08-30T11:08:44;33.00;99.80
32865;DHT22;19219;44.500;11.188;2022-08-30T11:14:09;32.80;99.40
32865;DHT22;19219;44.500;11.188;2022-08-30T11:16:41;32.70;99.90
32865;DHT22;19219;44.500;11.188;2022-08-30T11:19:18;32.50;99.70
32865;DHT22;19219;44.500;11.188;2022-08-30T11:21:46;32.50;99.90
32865;DHT22;19219;44.500;11.188;2022-08-30T11:24:22;32.30;99.90
32865;DHT22;19219;44.500;11.188;2022-08-30T11:26:49;32.30;99.90
32865;DHT22;19219;44.500;11.188;2022-08-30T11:29:29;32.40;99.90
32865;DHT22;19219;44.500;11.188;2022-08-30T11:31:57;32.50;99.90
32865;DHT22;19219;44.500;11.188;2022-08-30T11:37:43;32.20;99.90
32865;DHT22;19219;44.500;11.188;2022-08-30T11:42:52;31.80;99.90
32865;DHT22;19219;44.500;11.188;2022-08-30T11:50:21;31.90;99.90
32865;DHT22;19219;44.500;11.188;2022-08-30T11:58:24;31.90;99.90
32865;DHT22;19219;44.500;11.188;2022-08-30T12:01:17;31.80;99.90
32865;DHT22;19219;44.500;11.188;2022-08-30T12:04:10;31.70;99.90
32865;DHT22;19219;44.500;11.188;2022-08-30T12:09:07;31.80;99.90
32865;DHT22;19219;44.500;11.188;2022-08-30T12:14:01;32.00;99.90
32865;DHT22;19219;44.500;11.188;2022-08-30T12:19:15;32.10;99.90
32865;DHT22;19219;44.500;11.188;2022-08-30T12:21:57;32.00;99.90
32865;DHT22;19219;44.500;11.188;2022-08-30T12:24:36;32.10;99.90
32865;DHT22;19219;44.500;11.188;2022-08-30T12:27:39;32.20;99.90
32865;DHT22;19219;44.500;11.188;2022-08-30T12:30:07;32.30;99.50
32865;DHT22;19219;44.500;11.188;2022-08-30T12:32:42;32.10;99.10
32865;DHT22;19219;44.500;11.188;2022-08-30T12:35:18;32.00;99.80
32865;DHT22;19219;44.500;11.188;2022-08-30T12:37:58;32.00;99.20
32865;DHT22;19219;44.500;11.188;2022-08-30T12:40:25;31.90;99.50
32865;DHT22;19219;44.500;11.188;2022-08-30T12:43:05;31.80;99.50
32865;DHT22;19219;44.500;11.188;2022-08-30T12:45:43;31.90;99.30
32865;DHT22;19219;44.500;11.188;2022-08-30T12:48:14;32.00;99.40
32865;DHT22;19219;44.500;11.188;2022-08-30T12:50:52;32.20;99.80
32865;DHT22;19219;44.500;11.188;2022-08-30T12:58:42;32.50;99.90
32865;DHT22;19219;44.500;11.188;2022-08-30T13:01:13;32.70;99.20
32865;DHT22;19219;44.500;11.188;2022-08-30T13:03:39;32.80;98.90
32865;DHT22;19219;44.500;11.188;2022-08-30T13:06:05;32.70;99.30
32865;DHT22;19219;44.500;11.188;2022-08-30T13:08:36;32.70;99.20
32865;DHT22;19219;44.500;11.188;2022-08-30T13:13:48;32.80;99.30
32865;DHT22;19219;44.500;11.188;2022-08-30T13:21:33;32.90;98.10
32865;DHT22;19219;44.500;11.188;2022-08-30T13:24:04;33.00;98.20
32865;DHT22;19219;44.500;11.188;2022-08-30T13:26:34;32.90;97.60
32865;DHT22;19219;44.500;11.188;2022-08-30T13:29:01;32.90;97.70
32865;DHT22;19219;44.500;11.188;2022-08-30T13:31:28;32.80;97.20
32865;DHT22;19219;44.500;11.188;2022-08-30T13:33:54;32.70;97.70
32865;DHT22;19219;44.500;11.188;2022-08-30T13:36:28;32.50;97.10
32865;DHT22;19219;44.500;11.188;2022-08-30T13:38:56;32.30;97.50
32865;DHT22;19219;44.500;11.188;2022-08-30T13:41:21;32.00;97.70
32865;DHT22;19219;44.500;11.188;2022-08-30T13:43:47;31.80;98.10
32865;DHT22;19219;44.500;11.188;2022-08-30T13:46:16;31.70;98.60
32865;DHT22;19219;44.500;11.188;2022-08-30T13:48:42;31.60;98.70
32865;DHT22;19219;44.500;11.188;2022-08-30T13:51:08;31.50;98.90
32865;DHT22;19219;44.500;11.188;2022-08-30T13:53:35;31.30;98.30
32865;DHT22;19219;44.500;11.188;2022-08-30T13:56:02;31.20;98.40
32865;DHT22;19219;44.500;11.188;2022-08-30T13:58:29;31.00;98.60
32865;DHT22;19219;44.500;11.188;2022-08-30T14:00:55;30.90;99.00
32865;DHT22;19219;44.500;11.188;2022-08-30T14:03:21;30.90;99.10
32865;DHT22;19219;44.500;11.188;2022-08-30T14:05:47;30.90;99.60
32865;DHT22;19219;44.500;11.188;2022-08-30T14:08:16;30.90;99.60
32865;DHT22;19219;44.500;11.188;2022-08-30T14:10:42;30.90;99.40
32865;DHT22;19219;44.500;11.188;2022-08-30T14:13:08;30.90;99.60
32865;DHT22;19219;44.500;11.188;2022-08-30T14:15:35;30.90;99.70
32865;DHT22;19219;44.500;11.188;2022-08-30T14:18:02;30.90;99.70
32865;DHT22;19219;44.500;11.188;2022-08-30T14:20:28;30.90;99.60
32865;DHT22;19219;44.500;11.188;2022-08-30T14:22:54;30.90;99.60
32865;DHT22;19219;44.500;11.188;2022-08-30T14:25:19;30.80;99.80
32865;DHT22;19219;44.500;11.188;2022-08-30T14:27:45;30.70;99.90
32865;DHT22;19219;44.500;11.188;2022-08-30T14:30:11;30.80;99.90
32865;DHT22;19219;44.500;11.188;2022-08-30T14:32:37;30.70;99.90
32865;DHT22;19219;44.500;11.188;2022-08-30T14:35:02;30.70;99.90
32865;DHT22;19219;44.500;11.188;2022-08-30T14:37:28;30.60;99.90
32865;DHT22;19219;44.500;11.188;2022-08-30T14:39:55;30.40;99.90
32865;DHT22;19219;44.500;11.188;2022-08-30T14:42:21;30.20;99.90
32865;DHT22;19219;44.500;11.188;2022-08-30T14:44:46;30.00;99.90
32865;DHT22;19219;44.500;11.188;2022-08-30T14:47:12;29.70;99.90
32865;DHT22;19219;44.500;11.188;2022-08-30T14:49:38;29.60;99.90
32865;DHT22;19219;44.500;11.188;2022-08-30T14:52:03;29.50;99.90
32865;DHT22;19219;44.500;11.188;2022-08-30T14:54:30;29.40;99.90
32865;DHT22;19219;44.500;11.188;2022-08-30T14:56:56;29.30;99.90
32865;DHT22;19219;44.500;11.188;2022-08-30T14:59:23;29.20;99.90
32865;DHT22;19219;44.500;11.188;2022-08-30T15:01:49;29.00;99.90
32865;DHT22;19219;44.500;11.188;2022-08-30T15:04:15;28.60;99.90
32865;DHT22;19219;44.500;11.188;2022-08-30T15:06:43;28.20;99.90
32865;DHT22;19219;44.500;11.188;2022-08-30T15:09:11;27.90;99.90
32865;DHT22;19219;44.500;11.188;2022-08-30T15:11:37;27.30;99.90
32865;DHT22;19219;44.500;11.188;2022-08-30T15:14:04;26.90;99.90
32865;DHT22;19219;44.500;11.188;2022-08-30T15:16:32;26.50;99.90
32865;DHT22;19219;44.500;11.188;2022-08-30T15:18:59;26.30;99.90
32865;DHT22;19219;44.500;11.188;2022-08-30T15:21:29;26.00;99.90
32865;DHT22;19219;44.500;11.188;2022-08-30T15:23:56;25.80;99.90
32865;DHT22;19219;44.500;11.188;2022-08-30T15:26:22;25.70;99.90
32865;DHT22;19219;44.500;11.188;2022-08-30T15:28:48;25.60;99.90
32865;DHT22;19219;44.500;11.188;2022-08-30T15:31:14;25.40;99.90
32865;DHT22;19219;44.500;11.188;2022-08-30T15:33:40;25.30;99.90
32865;DHT22;19219;44.500;11.188;2022-08-30T15:36:07;25.20;99.90
32865;DHT22;19219;44.500;11.188;2022-08-30T15:38:33;25.00;99.90
32865;DHT22;19219;44.500;11.188;2022-08-30T15:41:01;24.80;99.90
32865;DHT22;19219;44.500;11.188;2022-08-30T15:43:28;24.60;99.90
32865;DHT22;19219;44.500;11.188;2022-08-30T15:45:54;24.40;99.90
32865;DHT22;19219;44.500;11.188;2022-08-30T15:48:21;24.40;99.90
32865;DHT22;19219;44.500;11.188;2022-08-30T15:50:55;24.30;99.90
32865;DHT22;19219;44.500;11.188;2022-08-30T15:53:21;24.10;99.90
32865;DHT22;19219;44.500;11.188;2022-08-30T15:55:46;23.90;99.90
32865;DHT22;19219;44.500;11.188;2022-08-30T15:58:12;24.00;99.90
32865;DHT22;19219;44.500;11.188;2022-08-30T16:00:38;24.00;99.90
32865;DHT22;19219;44.500;11.188;2022-08-30T16:03:05;23.90;99.90
32865;DHT22;19219;44.500;11.188;2022-08-30T16:05:31;24.00;99.90
32865;DHT22;19219;44.500;11.188;2022-08-30T16:07:56;23.90;99.90
32865;DHT22;19219;44.500;11.188;2022-08-30T16:10:22;24.00;99.90
32865;DHT22;19219;44.500;11.188;2022-08-30T16:12:48;24.00;99.90
32865;DHT22;19219;44.500;11.188;2022-08-30T16:15:13;24.00;99.90
32865;DHT22;19219;44.500;11.188;2022-08-30T16:17:39;23.80;99.90
32865;DHT22;19219;44.500;11.188;2022-08-30T16:20:06;23.80;99.90
32865;DHT22;19219;44.500;11.188;2022-08-30T16:22:32;23.80;99.90
32865;DHT22;19219;44.500;11.188;2022-08-30T16:24:58;23.80;99.90
32865;DHT22;19219;44.500;11.188;2022-08-30T16:27:23;23.80;99.90
32865;DHT22;19219;44.500;11.188;2022-08-30T16:29:49;23.70;99.90
32865;DHT22;19219;44.500;11.188;2022-08-30T16:32:15;23.80;99.90
32865;DHT22;19219;44.500;11.188;2022-08-30T16:34:41;23.90;99.90
32865;DHT22;19219;44.500;11.188;2022-08-30T16:37:07;23.80;99.90
32865;DHT22;19219;44.500;11.188;2022-08-30T16:39:33;23.80;99.90
32865;DHT22;19219;44.500;11.188;2022-08-30T16:41:59;23.80;99.90